createdAt,value
2023-03-24T00:00:20.653Z,4.03
2023-03-24T00:02:48.985Z,7.00
2023-03-24T00:05:19.155Z,3.88
2023-03-24T00:07:46.823Z,5.65
2023-03-24T00:10:18.278Z,6.18
2023-03-24T00:12:49.186Z,3.70
2023-03-24T00:15:19.730Z,4.25
2023-03-24T00:17:50.669Z,4.18
2023-03-24T00:20:20.438Z,4.30
2023-03-24T00:22:57.236Z,3.60
2023-03-24T00:25:36.614Z,4.82
2023-03-24T00:28:06.041Z,4.45
2023-03-24T00:30:35.144Z,4.05
2023-03-24T00:33:02.173Z,3.40
2023-03-24T00:35:29.428Z,4.18
2023-03-24T00:37:56.279Z,3.28
2023-03-24T00:40:23.088Z,2.85
2023-03-24T00:42:50.631Z,3.05
2023-03-24T00:45:23.550Z,3.65
2023-03-24T00:50:26.997Z,3.45
2023-03-24T00:52:55.338Z,3.35
2023-03-24T00:55:23.298Z,2.85
2023-03-24T00:57:51.002Z,4.10
2023-03-24T01:00:24.534Z,3.78
2023-03-24T01:02:53.978Z,3.17
2023-03-24T01:05:28.334Z,2.50
2023-03-24T01:08:04.713Z,2.83
2023-03-24T01:10:34.908Z,2.33
2023-03-24T01:13:02.887Z,3.08
2023-03-24T01:15:36.645Z,2.92
2023-03-24T01:18:03.633Z,3.58
2023-03-24T01:20:35.705Z,2.78
2023-03-24T01:23:07.205Z,3.20
2023-03-24T01:25:38.964Z,2.97
2023-03-24T01:28:05.932Z,2.90
2023-03-24T01:30:32.868Z,3.58
2023-03-24T01:32:59.739Z,3.90
2023-03-24T01:35:29.392Z,3.15
2023-03-24T01:37:57.140Z,3.40
2023-03-24T01:40:29.726Z,3.25
2023-03-24T01:42:58.012Z,3.05
2023-03-24T01:45:40.254Z,3.20
2023-03-24T01:48:14.021Z,2.90
2023-03-24T01:50:44.056Z,3.15
2023-03-24T01:53:11.211Z,3.65
2023-03-24T01:55:39.366Z,4.95
2023-03-24T01:58:07.403Z,2.83
2023-03-24T02:00:34.959Z,3.13
2023-03-24T02:03:09.658Z,3.50
2023-03-24T02:05:39.173Z,4.72
2023-03-24T02:08:18.678Z,4.00
2023-03-24T02:10:46.288Z,4.13
2023-03-24T02:13:13.329Z,4.55
2023-03-24T02:16:25.086Z,3.38
2023-03-24T02:19:38.490Z,5.25
2023-03-24T02:22:26.540Z,5.15
2023-03-24T02:25:08.472Z,4.13
2023-03-24T02:27:56.488Z,4.50
2023-03-24T02:30:41.841Z,3.47
2023-03-24T02:33:17.952Z,3.42
2023-03-24T02:36:03.087Z,5.32
2023-03-24T02:39:11.351Z,5.05
2023-03-24T02:42:08.133Z,4.80
2023-03-24T02:44:43.622Z,4.97
2023-03-24T02:47:19.232Z,6.18
2023-03-24T02:49:57.124Z,4.32
2023-03-24T02:52:42.044Z,3.47
2023-03-24T02:55:33.154Z,4.55
2023-03-24T02:58:11.554Z,4.10
2023-03-24T03:00:59.750Z,5.05
2023-03-24T03:03:35.877Z,3.67
2023-03-24T03:06:09.277Z,4.18
2023-03-24T03:08:39.075Z,3.25
2023-03-24T03:11:09.009Z,3.13
2023-03-24T03:13:40.880Z,3.95
2023-03-24T03:16:16.409Z,2.65
2023-03-24T03:19:06.156Z,3.90
2023-03-24T03:21:39.329Z,4.28
2023-03-24T03:27:03.084Z,3.33
2023-03-24T03:29:34.747Z,3.45
2023-03-24T03:32:10.351Z,3.40
2023-03-24T03:34:37.824Z,3.08
2023-03-24T03:37:08.072Z,3.00
2023-03-24T03:39:40.783Z,3.22
2023-03-24T03:42:07.658Z,3.17
2023-03-24T03:44:34.659Z,3.30
2023-03-24T03:47:01.623Z,3.65
2023-03-24T03:49:28.728Z,3.50
2023-03-24T03:51:57.392Z,3.65
2023-03-24T03:54:27.635Z,2.28
2023-03-24T03:56:55.054Z,2.75
2023-03-24T03:59:25.006Z,3.58
2023-03-24T04:01:52.170Z,3.15
2023-03-24T04:05:06.420Z,2.75
2023-03-24T04:07:52.474Z,2.97
2023-03-24T04:10:30.526Z,2.25
2023-03-24T04:13:20.991Z,2.22
2023-03-24T04:16:23.169Z,2.78
2023-03-24T04:19:11.500Z,2.20
2023-03-24T04:22:05.144Z,1.90
2023-03-24T04:24:40.375Z,2.33
2023-03-24T04:27:14.714Z,2.63
2023-03-24T04:29:54.615Z,2.38
2023-03-24T04:32:46.616Z,2.00
2023-03-24T04:35:31.899Z,3.72
2023-03-24T04:38:09.366Z,3.33
2023-03-24T04:40:42.110Z,3.30
2023-03-24T04:43:13.964Z,2.95
2023-03-24T04:45:42.017Z,3.28
2023-03-24T04:48:12.726Z,2.70
2023-03-24T04:50:43.139Z,2.97
2023-03-24T04:53:10.821Z,2.83
2023-03-24T04:55:49.841Z,2.75
2023-03-24T04:58:18.816Z,3.83
2023-03-24T05:00:45.989Z,3.05
2023-03-24T05:03:14.306Z,2.63
2023-03-24T05:05:42.308Z,3.72
2023-03-24T05:08:09.489Z,3.63
2023-03-24T05:10:36.714Z,3.35
2023-03-24T05:13:05.061Z,3.60
2023-03-24T05:15:31.788Z,2.75
2023-03-24T05:17:58.931Z,2.42
2023-03-24T05:20:27.205Z,2.95
2023-03-24T05:22:54.211Z,3.25
2023-03-24T05:25:21.361Z,2.58
2023-03-24T05:27:48.770Z,4.72
2023-03-24T05:30:16.606Z,2.63
2023-03-24T05:32:45.344Z,2.35
2023-03-24T05:35:13.685Z,1.75
2023-03-24T05:37:40.805Z,2.05
2023-03-24T05:40:08.344Z,2.28
2023-03-24T05:42:35.056Z,3.28
2023-03-24T05:45:01.850Z,2.53
2023-03-24T05:47:28.620Z,2.50
2023-03-24T05:49:55.342Z,2.42
2023-03-24T05:52:22.611Z,2.90
2023-03-24T05:54:52.303Z,2.20
2023-03-24T05:57:20.570Z,2.17
2023-03-24T05:59:47.814Z,2.15
2023-03-24T06:02:14.694Z,2.20
2023-03-24T06:04:46.633Z,2.53
2023-03-24T06:07:14.495Z,2.20
2023-03-24T06:09:47.103Z,2.30
2023-03-24T06:12:16.300Z,2.38
2023-03-24T06:14:43.277Z,1.85
2023-03-24T06:17:14.870Z,2.10
2023-03-24T06:19:49.042Z,2.08
2023-03-24T06:22:20.569Z,2.00
2023-03-24T06:24:47.989Z,2.35
2023-03-24T06:27:14.929Z,2.45
2023-03-24T06:29:44.903Z,2.03
2023-03-24T06:32:11.728Z,1.88
2023-03-24T06:34:40.677Z,1.73
2023-03-24T06:37:08.117Z,2.30
2023-03-24T06:39:34.835Z,2.28
2023-03-24T06:42:02.291Z,1.73
2023-03-24T06:44:29.263Z,3.10
2023-03-24T06:46:56.242Z,1.88
2023-03-24T06:49:23.117Z,1.92
2023-03-24T06:51:49.979Z,1.75
2023-03-24T06:54:17.037Z,1.90
2023-03-24T06:56:44.077Z,1.58
2023-03-24T06:59:10.789Z,1.70
2023-03-24T07:01:38.680Z,1.83
2023-03-24T07:04:06.483Z,1.95
2023-03-24T07:06:40.341Z,2.60
2023-03-24T07:09:10.257Z,1.75
2023-03-24T07:11:36.949Z,1.85
2023-03-24T07:14:03.676Z,2.00
2023-03-24T07:16:30.657Z,1.95
2023-03-24T07:18:57.420Z,1.80
2023-03-24T07:21:24.100Z,1.63
2023-03-24T07:23:50.799Z,2.33
2023-03-24T07:26:17.476Z,2.40
2023-03-24T07:28:44.175Z,2.00
2023-03-24T07:31:12.369Z,2.72
2023-03-24T07:33:39.097Z,1.80
2023-03-24T07:36:07.702Z,1.92
2023-03-24T07:38:35.167Z,2.00
2023-03-24T07:41:01.914Z,2.28
2023-03-24T07:43:28.950Z,1.90
2023-03-24T07:45:55.911Z,1.90
2023-03-24T07:48:22.633Z,1.50
2023-03-24T07:50:49.328Z,1.90
2023-03-24T07:53:20.221Z,1.50
2023-03-24T07:55:47.196Z,1.80
2023-03-24T07:58:14.043Z,1.52
2023-03-24T08:00:42.074Z,1.33
2023-03-24T08:03:14.824Z,1.45
2023-03-24T08:05:42.523Z,1.77
2023-03-24T08:08:09.486Z,1.60
2023-03-24T08:10:36.623Z,1.75
2023-03-24T08:13:03.896Z,1.65
2023-03-24T08:15:30.709Z,1.50
2023-03-24T08:17:57.508Z,1.45
2023-03-24T08:20:27.257Z,1.50
2023-03-24T08:22:54.772Z,1.77
2023-03-24T08:25:25.269Z,1.80
2023-03-24T08:27:52.543Z,1.50
2023-03-24T08:30:21.640Z,1.95
2023-03-24T08:33:00.552Z,1.60
2023-03-24T08:35:38.749Z,1.20
2023-03-24T08:38:07.234Z,1.70
2023-03-24T08:40:35.162Z,1.58
2023-03-24T08:43:04.636Z,1.35
2023-03-24T08:45:32.492Z,1.50
2023-03-24T08:48:01.966Z,1.27
2023-03-24T08:50:34.628Z,1.30
2023-03-24T08:53:02.092Z,1.50
2023-03-24T08:55:28.922Z,1.25
2023-03-24T08:57:56.105Z,1.50
2023-03-24T09:00:23.801Z,1.20
2023-03-24T09:02:54.053Z,1.30
2023-03-24T09:05:36.475Z,1.42
2023-03-24T09:08:08.312Z,1.40
2023-03-24T09:10:35.775Z,1.38
2023-03-24T09:13:04.448Z,1.35
2023-03-24T09:15:31.708Z,1.30
2023-03-24T09:17:58.542Z,1.50
2023-03-24T09:20:25.729Z,1.33
2023-03-24T09:22:52.743Z,1.30
2023-03-24T09:25:21.541Z,1.25
2023-03-24T09:27:48.906Z,1.40
2023-03-24T09:30:17.436Z,1.48
2023-03-24T09:32:45.173Z,1.27
2023-03-24T09:35:12.003Z,1.30
2023-03-24T09:37:39.343Z,1.30
2023-03-24T09:40:07.777Z,1.20
2023-03-24T09:42:38.914Z,1.50
2023-03-24T09:45:17.008Z,1.10
2023-03-24T09:47:49.194Z,1.20
2023-03-24T09:50:25.731Z,1.50
2023-03-24T09:52:57.975Z,1.30
2023-03-24T09:55:28.521Z,1.35
2023-03-24T09:58:01.601Z,1.30
2023-03-24T10:00:31.760Z,1.40
2023-03-24T10:03:02.695Z,1.20
2023-03-24T10:05:44.214Z,1.30
2023-03-24T10:08:35.962Z,1.38
2023-03-24T10:11:05.010Z,1.10
2023-03-24T10:13:57.552Z,1.20
2023-03-24T10:16:43.157Z,0.93
2023-03-24T10:19:43.866Z,1.00
2023-03-24T10:22:21.987Z,1.20
2023-03-24T10:25:06.846Z,1.30
2023-03-24T10:27:43.488Z,1.38
2023-03-24T10:30:49.676Z,1.17
2023-03-24T10:33:16.693Z,0.95
2023-03-24T10:36:11.152Z,1.42
2023-03-24T10:38:37.994Z,1.20
2023-03-24T10:41:05.235Z,1.10
2023-03-24T10:43:32.436Z,1.10
2023-03-24T10:46:02.258Z,0.85
2023-03-24T10:49:10.257Z,1.00
2023-03-24T10:51:37.248Z,1.15
2023-03-24T10:54:21.156Z,1.00
2023-03-24T10:56:52.214Z,1.02
2023-03-24T10:59:21.883Z,1.15
2023-03-24T11:01:49.284Z,0.90
2023-03-24T11:04:19.847Z,1.10
2023-03-24T11:07:04.784Z,0.90
2023-03-24T11:09:40.964Z,1.65
2023-03-24T11:12:26.141Z,1.17
2023-03-24T11:15:07.536Z,1.30
2023-03-24T11:17:46.151Z,1.10
2023-03-24T11:20:24.573Z,1.17
2023-03-24T11:23:09.657Z,1.27
2023-03-24T11:25:38.979Z,1.20
2023-03-24T11:28:09.283Z,1.10
2023-03-24T11:30:48.565Z,0.93
2023-03-24T11:33:41.802Z,1.00
2023-03-24T11:36:30.813Z,1.00
2023-03-24T11:39:10.908Z,1.25
2023-03-24T11:41:41.056Z,1.00
2023-03-24T11:44:13.785Z,1.20
2023-03-24T11:46:43.482Z,1.00
2023-03-24T11:49:16.505Z,1.00
2023-03-24T11:51:46.149Z,1.10
2023-03-24T11:54:16.721Z,1.00
2023-03-24T11:56:47.061Z,1.10
2023-03-24T11:59:30.305Z,0.88
2023-03-24T12:02:32.786Z,1.00
2023-03-24T12:05:16.933Z,0.90
2023-03-24T12:08:10.817Z,1.00
2023-03-24T12:10:37.434Z,1.00
2023-03-24T12:13:25.962Z,1.10
2023-03-24T12:16:26.199Z,0.70
2023-03-24T12:21:26.456Z,1.13
2023-03-24T12:23:58.713Z,1.25
2023-03-24T12:26:33.317Z,1.20
2023-03-24T12:29:03.479Z,0.82
2023-03-24T12:31:42.616Z,0.90
2023-03-24T12:34:46.493Z,1.10
2023-03-24T12:37:31.689Z,0.98
2023-03-24T12:40:19.725Z,0.98
2023-03-24T12:42:47.127Z,0.80
2023-03-24T12:45:53.430Z,0.90
2023-03-24T12:48:43.407Z,0.70
2023-03-24T12:51:27.329Z,0.80
2023-03-24T12:54:07.561Z,0.82
2023-03-24T12:56:43.247Z,0.80
2023-03-24T12:59:10.042Z,0.90
2023-03-24T13:01:51.999Z,0.90
2023-03-24T13:04:29.520Z,0.90
2023-03-24T13:07:11.644Z,1.10
2023-03-24T13:10:00.296Z,1.20
2023-03-24T13:12:31.581Z,1.40
2023-03-24T13:15:04.179Z,1.20
2023-03-24T13:17:39.251Z,1.35
2023-03-24T13:20:12.690Z,1.40
2023-03-24T13:22:40.151Z,1.20
2023-03-24T13:25:22.996Z,1.25
2023-03-24T13:27:54.514Z,1.50
2023-03-24T13:30:31.614Z,1.60
2023-03-24T13:33:12.710Z,1.58
2023-03-24T13:36:08.027Z,1.77
2023-03-24T13:38:42.344Z,1.77
2023-03-24T13:41:17.414Z,1.50
2023-03-24T13:43:58.064Z,1.20
2023-03-24T13:46:25.407Z,1.67
2023-03-24T13:48:55.992Z,1.48
2023-03-24T13:51:28.608Z,1.20
2023-03-24T13:54:01.334Z,1.30
2023-03-24T13:56:34.745Z,1.25
2023-03-24T13:59:21.036Z,1.60
2023-03-24T14:02:10.387Z,1.65
2023-03-24T14:04:44.818Z,1.35
2023-03-24T14:07:33.926Z,1.45
2023-03-24T14:10:14.690Z,1.02
2023-03-24T14:12:59.641Z,1.33
2023-03-24T14:15:44.673Z,1.27
2023-03-24T14:18:23.805Z,1.20
2023-03-24T14:20:56.896Z,1.30
2023-03-24T14:23:53.399Z,2.25
2023-03-24T14:26:20.059Z,1.48
2023-03-24T14:28:49.343Z,1.20
2023-03-24T14:31:16.153Z,1.63
2023-03-24T14:33:55.057Z,1.58
2023-03-24T14:36:40.175Z,1.73
2023-03-24T14:39:33.202Z,2.92
2023-03-24T14:42:00.033Z,3.67
2023-03-24T14:44:45.038Z,2.30
2023-03-24T14:47:35.248Z,1.80
2023-03-24T14:50:19.454Z,1.40
2023-03-24T14:52:59.578Z,1.30
2023-03-24T14:55:27.890Z,1.10
2023-03-24T14:58:12.103Z,1.33
2023-03-24T15:00:57.959Z,1.20
2023-03-24T15:03:33.689Z,1.17
2023-03-24T15:06:24.558Z,1.30
2023-03-24T15:08:53.621Z,1.63
2023-03-24T15:11:24.449Z,1.67
2023-03-24T15:13:53.600Z,1.20
2023-03-24T15:16:24.998Z,1.33
2023-03-24T15:19:01.342Z,0.90
2023-03-24T15:21:39.910Z,1.20
2023-03-24T15:24:21.463Z,1.23
2023-03-24T15:27:14.576Z,1.13
2023-03-24T15:29:43.927Z,1.50
2023-03-24T15:32:23.395Z,1.60
2023-03-24T15:34:53.373Z,1.40
2023-03-24T15:37:32.063Z,1.55
2023-03-24T15:40:08.907Z,1.52
2023-03-24T15:45:30.127Z,1.30
2023-03-24T15:47:58.622Z,1.00
2023-03-24T15:50:37.695Z,1.25
2023-03-24T15:53:19.746Z,0.93
2023-03-24T15:55:46.663Z,1.10
2023-03-24T15:58:28.553Z,1.00
2023-03-24T16:01:00.065Z,0.80
2023-03-24T16:03:27.204Z,1.00
2023-03-24T16:05:55.935Z,1.00
2023-03-24T16:08:39.251Z,1.08
2023-03-24T16:13:35.057Z,1.65
2023-03-24T16:16:11.418Z,3.05
2023-03-24T16:18:40.584Z,3.20
2023-03-24T16:21:28.180Z,2.03
2023-03-24T16:23:56.978Z,4.93
2023-03-24T16:26:29.602Z,2.75
2023-03-24T16:29:03.206Z,4.20
2023-03-24T16:31:33.658Z,2.25
2023-03-24T16:34:00.399Z,1.90
2023-03-24T16:39:18.401Z,1.27
2023-03-24T16:41:46.078Z,1.10
2023-03-24T16:44:13.557Z,1.17
2023-03-24T16:46:41.624Z,1.40
2023-03-24T16:49:12.558Z,1.35
2023-03-24T16:51:39.398Z,1.15
2023-03-24T16:54:06.328Z,1.40
2023-03-24T16:56:33.083Z,1.20
2023-03-24T16:58:59.844Z,1.40
2023-03-24T17:01:39.454Z,1.20
2023-03-24T17:04:14.480Z,2.30
2023-03-24T17:06:44.320Z,1.70
2023-03-24T17:09:12.709Z,2.22
2023-03-24T17:11:43.333Z,1.60
2023-03-24T17:14:12.556Z,1.50
2023-03-24T17:16:49.315Z,1.20
2023-03-24T17:19:19.285Z,1.00
2023-03-24T17:21:50.315Z,1.13
2023-03-24T17:24:17.704Z,0.88
2023-03-24T17:26:44.462Z,1.00
2023-03-24T17:29:14.694Z,1.13
2023-03-24T17:31:43.404Z,0.80
2023-03-24T17:36:44.661Z,1.00
2023-03-24T17:39:16.512Z,0.90
2023-03-24T17:41:43.251Z,1.35
2023-03-24T17:44:10.059Z,1.40
2023-03-24T17:46:36.964Z,1.30
2023-03-24T17:49:04.130Z,1.30
2023-03-24T17:51:30.830Z,1.20
2023-03-24T17:53:57.549Z,1.38
2023-03-24T17:56:24.297Z,1.20
2023-03-24T17:58:55.036Z,1.38
2023-03-24T18:01:22.266Z,1.10
2023-03-24T18:03:49.880Z,1.52
2023-03-24T18:06:17.199Z,1.80
2023-03-24T18:08:44.634Z,3.22
2023-03-24T18:11:14.599Z,3.10
2023-03-24T18:13:42.643Z,2.63
2023-03-24T18:16:20.441Z,2.80
2023-03-24T18:18:48.848Z,4.03
2023-03-24T18:21:15.737Z,3.30
2023-03-24T18:23:42.501Z,3.03
2023-03-24T18:26:09.583Z,2.50
2023-03-24T18:28:39.017Z,2.00
2023-03-24T18:31:26.221Z,2.00
2023-03-24T18:33:53.959Z,1.73
2023-03-24T18:36:26.468Z,1.80
2023-03-24T18:39:11.514Z,1.90
2023-03-24T18:41:39.428Z,2.10
2023-03-24T18:44:08.825Z,3.13
2023-03-24T18:46:37.063Z,2.83
2023-03-24T18:49:04.237Z,2.83
2023-03-24T18:51:33.082Z,3.47
2023-03-24T18:53:59.981Z,2.97
2023-03-24T18:56:26.787Z,2.85
2023-03-24T18:58:53.645Z,2.90
2023-03-24T19:01:23.260Z,2.00
2023-03-24T19:03:51.414Z,2.00
2023-03-24T19:06:18.960Z,2.38
2023-03-24T19:08:50.510Z,2.58
2023-03-24T19:11:17.497Z,2.90
2023-03-24T19:13:46.289Z,2.42
2023-03-24T19:16:13.383Z,2.70
2023-03-24T19:18:40.250Z,2.90
2023-03-24T19:21:07.395Z,2.90
2023-03-24T19:23:34.846Z,3.28
2023-03-24T19:26:02.764Z,2.83
2023-03-24T19:28:31.872Z,2.15
2023-03-24T19:31:00.400Z,3.33
2023-03-24T19:33:27.979Z,3.15
2023-03-24T19:35:54.717Z,2.92
2023-03-24T19:38:24.119Z,3.42
2023-03-24T19:40:54.201Z,3.25
2023-03-24T19:43:22.697Z,6.65
2023-03-24T19:45:58.607Z,5.72
2023-03-24T19:48:25.671Z,6.57
2023-03-24T19:50:53.975Z,7.60
2023-03-24T19:53:22.139Z,6.18
2023-03-24T19:55:49.582Z,6.63
2023-03-24T19:58:17.304Z,5.72
2023-03-24T20:00:44.259Z,5.78
2023-03-24T20:03:11.158Z,7.13
2023-03-24T20:05:37.886Z,9.27
2023-03-24T20:08:04.988Z,10.65
2023-03-24T20:10:31.757Z,9.40
2023-03-24T20:12:58.426Z,11.18
2023-03-24T20:15:25.148Z,9.88
2023-03-24T20:17:52.557Z,8.88
2023-03-24T20:20:19.409Z,6.75
2023-03-24T20:22:46.492Z,6.60
2023-03-24T20:25:15.593Z,5.35
2023-03-24T20:27:45.349Z,4.57
2023-03-24T20:30:13.592Z,4.22
2023-03-24T20:32:40.429Z,4.07
2023-03-24T20:35:07.877Z,3.90
2023-03-24T20:37:35.855Z,3.67
2023-03-24T20:40:07.136Z,3.35
2023-03-24T20:42:33.964Z,3.38
2023-03-24T20:45:00.970Z,3.20
2023-03-24T20:47:27.747Z,3.05
2023-03-24T20:49:54.597Z,3.35
2023-03-24T20:52:23.136Z,2.83
2023-03-24T20:54:50.771Z,3.20
2023-03-24T20:57:19.276Z,2.38
2023-03-24T20:59:49.169Z,3.53
2023-03-24T21:02:16.064Z,3.08
2023-03-24T21:04:43.429Z,2.20
2023-03-24T21:07:11.356Z,2.67
2023-03-24T21:09:38.413Z,2.50
2023-03-24T21:12:06.707Z,3.28
2023-03-24T21:14:34.369Z,3.20
2023-03-24T21:17:02.394Z,3.25
2023-03-24T21:19:30.599Z,3.50
2023-03-24T21:21:58.920Z,3.55
2023-03-24T21:24:26.031Z,3.67
2023-03-24T21:26:57.121Z,5.07
2023-03-24T21:29:24.676Z,4.55
2023-03-24T21:31:51.654Z,4.28
2023-03-24T21:34:18.434Z,4.70
2023-03-24T21:36:46.224Z,3.65
2023-03-24T21:39:13.016Z,3.15
2023-03-24T21:41:39.968Z,3.00
2023-03-24T21:44:09.523Z,3.08
2023-03-24T21:46:37.141Z,4.82
2023-03-24T21:49:05.289Z,4.30
2023-03-24T21:51:37.543Z,3.55
2023-03-24T21:54:06.800Z,3.70
2023-03-24T21:56:35.192Z,4.18
2023-03-24T21:59:02.303Z,4.18
2023-03-24T22:01:29.161Z,4.10
2023-03-24T22:03:56.122Z,3.30
2023-03-24T22:06:23.214Z,3.58
2023-03-24T22:08:53.353Z,3.85
2023-03-24T22:11:20.214Z,3.38
2023-03-24T22:13:47.137Z,3.60
2023-03-24T22:16:14.670Z,4.45
2023-03-24T22:18:41.797Z,4.60
2023-03-24T22:21:10.774Z,5.55
2023-03-24T22:23:40.499Z,6.10
2023-03-24T22:26:13.182Z,4.65
2023-03-24T22:28:40.843Z,5.38
2023-03-24T22:31:13.019Z,4.82
2023-03-24T22:33:40.745Z,3.88
2023-03-24T22:36:08.644Z,4.45
2023-03-24T22:38:35.605Z,4.22
2023-03-24T22:41:06.517Z,3.97
2023-03-24T22:43:33.384Z,3.50
2023-03-24T22:46:00.040Z,4.07
2023-03-24T22:48:26.826Z,3.88
2023-03-24T22:50:54.128Z,4.18
2023-03-24T22:53:20.919Z,4.38
2023-03-24T22:55:48.025Z,4.50
2023-03-24T22:58:15.472Z,3.92
2023-03-24T23:00:43.478Z,4.25
2023-03-24T23:03:11.404Z,5.88
2023-03-24T23:05:46.050Z,4.68
2023-03-24T23:08:15.507Z,6.13
2023-03-24T23:10:47.038Z,5.93
2023-03-24T23:13:14.482Z,4.25
2023-03-24T23:15:42.816Z,4.65
2023-03-24T23:18:10.463Z,4.05
2023-03-24T23:20:37.688Z,4.00
2023-03-24T23:23:06.747Z,4.93
2023-03-24T23:25:39.185Z,5.97
2023-03-24T23:28:06.514Z,4.40
2023-03-24T23:30:33.178Z,3.72
2023-03-24T23:32:59.939Z,4.88
2023-03-24T23:35:26.819Z,4.68
2023-03-24T23:37:53.502Z,5.35
2023-03-24T23:40:20.472Z,4.88
2023-03-24T23:42:48.930Z,4.50
2023-03-24T23:45:18.570Z,4.97
2023-03-24T23:47:50.841Z,4.63
2023-03-24T23:50:19.305Z,4.67
2023-03-24T23:52:46.191Z,4.65
2023-03-24T23:55:14.836Z,4.50
2023-03-24T23:57:42.653Z,4.35
